Buoy 46535

sailwx.info

Track history (hours):
 
Tides and Currents Weather Stations Pressure Air Temp Water Temp Dewpoint Dewpoint Depression Visibility Wind Speed Wind Dir Waves Ship Positions

Drifting buoy 46535

Last reported at 2014-Mar-28 21:00 UTC. Time now 2014-Jul-29 20:57 UTC.
Position N 52°42' W 146°06'.
Warning: this ship's position is months out of date.

Barometer 1005.3 mb
Water temperature 5.9 ° C

Date/timePositionNaut miles runAvg speedWind from/ knotsBaromVisibWave heightAir tempDewpointWater temp
2014-Mar-28 21:00N 52°42' W 146°06'1 1.0 1005.3 5.9
2014-Mar-28 20:00N 52°42' W 146°07'1 1.0 1005.2 5.9
2014-Mar-28 19:00N 52°43' W 146°08'1 0.9 1005.0 5.8
2014-Mar-28 18:00N 52°44' W 146°10'1 0.9 1004.9 5.8
2014-Mar-28 17:00N 52°44' W 146°11'1 0.9 1004.6 5.8
2014-Mar-28 16:00N 52°45' W 146°12'1 0.9 1004.3 5.7
2014-Mar-28 15:00N 52°45' W 146°13'1 0.6 1004.3 5.7
2014-Mar-28 14:00N 52°45' W 146°14'1 0.5 1004.1 5.7
2014-Mar-28 13:00N 52°46' W 146°15'0 0.4 1004.2 5.7
2014-Mar-28 12:00N 52°46' W 146°15'0 0.4 1004.2 5.7
2014-Mar-28 11:00N 52°46' W 146°15'0 0.5 1004.3 5.7
2014-Mar-28 10:00N 52°47' W 146°15'0 0.4 1004.4 5.7
2014-Mar-28 09:00N 52°47' W 146°15'0 0.2 1004.2 5.7
2014-Mar-28 08:00N 52°48' W 146°15'0 0.2 1004.3 5.7
2014-Mar-28 07:00N 52°48' W 146°15'0 0.2 1004.1 5.7
2014-Mar-28 06:00N 52°48' W 146°14'0 0.1 1004.2 5.7
2014-Mar-28 05:00N 52°48' W 146°15'0 0.2 1004.0 5.7
2014-Mar-28 04:00N 52°48' W 146°15'0 0.1 1003.6 5.7
2014-Mar-28 03:00N 52°48' W 146°15'0 0.1 1003.5 5.7
2014-Mar-28 02:00N 52°48' W 146°15'0 0.1 1003.6 5.7
2014-Mar-28 01:00N 52°48' W 146°15'0 0.1 1003.6 5.7
2014-Mar-28 00:00N 52°48' W 146°15'0 0.1 1003.4 5.7
2014-Mar-27 23:00N 52°48' W 146°15'0 0.2 1003.3 5.7
2014-Mar-27 22:00N 52°48' W 146°15'0 0.2 1003.2 5.7
2014-Mar-27 21:00N 52°48' W 146°14'0 0.3 1003.0 5.7
2014-Mar-27 20:00N 52°48' W 146°14'0 0.3 1002.7 5.7
2014-Mar-27 19:00N 52°48' W 146°13'0 0.2 1002.5 5.7
2014-Mar-27 18:00N 52°48' W 146°13'0 0.2 1002.3 5.7
2014-Mar-27 17:00N 52°48' W 146°13'0 0.2 1002.0 5.7
2014-Mar-27 16:00N 52°49' W 146°13'0 0.1 1001.6 5.7
2014-Mar-27 15:00N 52°49' W 146°13'0 0.1 1001.4 5.7
2014-Mar-27 14:00N 52°49' W 146°13'0 0.1 1001.3 5.7
2014-Mar-27 13:00N 52°49' W 146°13'0 0.1 1001.3 5.7
2014-Mar-27 12:00N 52°49' W 146°13'0 0.2 1001.2 5.7
2014-Mar-27 11:00N 52°49' W 146°13'0 0.0 1001.3 5.7
2014-Mar-27 10:00N 52°49' W 146°13'0 0.0 1001.2 5.7
2014-Mar-27 09:00N 52°49' W 146°13'0 0.1 1001.2 5.7
2014-Mar-27 08:00N 52°49' W 146°13'0 0.3 1001.1 5.7
2014-Mar-27 07:00N 52°50' W 146°12'0 0.3 1001.1 5.7
2014-Mar-27 06:00N 52°50' W 146°12'0 0.2 1001.2 5.7
2014-Mar-27 05:00N 52°50' W 146°12'2 0.2 1001.2 5.7
2014-Mar-26 21:00N 52°52' W 146°12'0 0.4 1003.1 5.7
2014-Mar-26 20:00N 52°52' W 146°12'0 0.4 1003.0 5.7
2014-Mar-26 19:00N 52°52' W 146°12'0 0.4 1003.1 5.7
2014-Mar-26 18:00N 52°53' W 146°13'0 0.4 1003.1 5.7
2014-Mar-26 17:00N 52°53' W 146°13'0 0.2 1003.0 5.7
2014-Mar-26 16:00N 52°53' W 146°14'0 0.1 1003.1 5.7
2014-Mar-26 15:00N 52°53' W 146°14'0 0.1 1003.2 5.7
2014-Mar-26 14:00N 52°53' W 146°14'0 0.2 1003.0 5.7
2014-Mar-26 13:00N 52°53' W 146°13'0 0.4 1003.2 5.7
2014-Mar-26 12:00N 52°53' W 146°13'0 0.4 1003.3 5.7
2014-Mar-26 11:00N 52°54' W 146°12'1 0.5 1003.3 5.7
2014-Mar-26 10:00N 52°54' W 146°12'1 0.6 1003.0 5.7
2014-Mar-26 09:00N 52°55' W 146°12'0 0.5 1003.1 5.7
2014-Mar-26 08:00N 52°55' W 146°12'0 0.4 1002.7 5.7
2014-Mar-26 07:00N 52°55' W 146°12'0 0.4 1002.7 5.7
2014-Mar-26 06:00N 52°56' W 146°13'1 0.5 1002.7 5.7
2014-Mar-26 05:00N 52°56' W 146°13'0 0.4 1002.2 5.7
2014-Mar-26 04:00N 52°57' W 146°14'0 0.3 1001.9 5.7
2014-Mar-26 03:00N 52°57' W 146°14'0 0.2 1001.5 5.7
2014-Mar-26 02:00N 52°57' W 146°14'0 0.2 1001.4 5.7
2014-Mar-26 01:00N 52°57' W 146°15'0 0.1 1001.3 5.7
2014-Mar-26 00:00N 52°57' W 146°15'0 0.1 1000.9 5.7
2014-Mar-25 23:00N 52°57' W 146°15'0 0.2 1000.7 5.7
2014-Mar-25 22:00N 52°57' W 146°14'0 0.4 1000.5 5.7
2014-Mar-25 21:00N 52°57' W 146°14'0 0.5 1000.2 5.7
2014-Mar-25 20:00N 52°58' W 146°13'0 0.5 1000.0 5.7
2014-Mar-25 19:00N 52°58' W 146°13'0 0.5 999.5 5.7
2014-Mar-25 18:00N 52°59' W 146°13'0 0.4 999.1 5.7
2014-Mar-25 17:00N 52°59' W 146°13'0 0.3 998.8 5.7
2014-Mar-25 16:00N 52°59' W 146°13'0 0.4 998.5 5.6
2014-Mar-25 15:00N 52°60' W 146°14'0 0.3 998.3 5.6
2014-Mar-25 14:00N 52°60' W 146°14'0 0.2 998.4 5.6
2014-Mar-25 13:00N 52°60' W 146°14'0 0.3 998.4 5.6
2014-Mar-25 12:00N 53°00' W 146°14'0 0.4 998.7 5.6
2014-Mar-25 11:00N 52°60' W 146°15'0 0.2 998.9 5.6
2014-Mar-25 10:00N 52°60' W 146°14'0 0.2 999.2 5.6
2014-Mar-25 09:00N 52°60' W 146°14'0 0.4 999.4 5.6
2014-Mar-25 08:00N 52°60' W 146°14'0 0.5 999.5 5.6
2014-Mar-25 07:00N 52°59' W 146°13'0 0.4 999.8 5.6
2014-Mar-25 06:00N 52°59' W 146°12'0 0.4 999.8 5.6
2014-Mar-25 05:00N 52°60' W 146°11'0 0.3 1000.0 5.6
2014-Mar-25 04:00N 52°60' W 146°11'1 0.3 1000.2 5.6
2014-Mar-25 02:00N 52°60' W 146°10'0 0.2 1001.4 5.7
2014-Mar-25 01:00N 53°00' W 146°10'0 0.1 1002.1 5.7
2014-Mar-25 00:00N 53°00' W 146°10'0 0.2 1002.6 5.7
2014-Mar-24 23:00N 53°00' W 146°10'0 0.2 1003.6 5.7
2014-Mar-24 22:00N 53°00' W 146°11'0 0.2 1004.3 5.7
2014-Mar-24 21:00N 53°00' W 146°11'0 0.2 1004.6 5.7
2014-Mar-24 20:00N 52°60' W 146°11'0 0.2 1004.7 5.6
2014-Mar-24 19:00N 52°60' W 146°11'0 0.3 1004.3 5.6
2014-Mar-24 18:00N 52°60' W 146°10'0 0.3 1004.3 5.6
2014-Mar-24 17:00N 52°59' W 146°10'0 0.3 1004.1 5.6
2014-Mar-24 16:00N 52°59' W 146°09'0 0.4 1004.4 5.6
2014-Mar-24 15:00N 52°59' W 146°09'0 0.4 1004.7 5.6
2014-Mar-24 14:00N 52°59' W 146°08'0 0.4 1004.9 5.6
2014-Mar-24 13:00N 52°59' W 146°08'0 0.3 1005.4 5.6
2014-Mar-24 12:00N 52°59' W 146°07'0 0.1 1005.9 5.6
2014-Mar-24 11:00N 52°59' W 146°07'0 0.2 1006.4 5.6
2014-Mar-24 10:00N 52°59' W 146°07'0 0.3 1006.4 5.6
2014-Mar-24 09:00N 52°59' W 146°08'0 0.4 1006.2 5.6
2014-Mar-24 08:00N 52°59' W 146°08'0 0.2 1005.9 5.6
2014-Mar-24 07:00N 52°59' W 146°08'0 0.1 1005.5 5.6
2014-Mar-24 06:00N 52°59' W 146°08'0 0.1 1004.3 5.6
2014-Mar-24 05:00N 52°59' W 146°08'0 0.1 1002.7 5.6
2014-Mar-24 04:00N 52°59' W 146°09'0 0.2 1002.4 5.6
2014-Mar-24 03:00N 52°59' W 146°08'0 0.4 1003.1 5.6
2014-Mar-24 02:00N 52°59' W 146°08'1 0.6 1003.6 5.6
2014-Mar-24 01:00N 52°58' W 146°07'1 0.7 1004.4 5.6
2014-Mar-24 00:00N 52°57' W 146°07'1 0.8 1005.0 5.6
2014-Mar-23 23:00N 52°57' W 146°06'1 0.7 1005.6 5.7
2014-Mar-23 22:00N 52°56' W 146°05'1 0.6 1006.4 5.7
2014-Mar-23 21:00N 52°56' W 146°04'0 0.1 1006.7 5.7
2014-Mar-23 20:00N 52°56' W 146°04'1 0.6 1007.2 5.7
2014-Mar-23 19:00N 52°56' W 146°03'0 0.2 1007.5 5.6
2014-Mar-23 18:00N 52°56' W 146°03'0 0.1 1008.0 5.6
2014-Mar-23 17:00N 52°56' W 146°03'0 0.2 1008.3 5.6
2014-Mar-23 16:00N 52°56' W 146°03'0 0.4 1008.4 5.6
2014-Mar-23 15:00N 52°55' W 146°03'1 0.5 1008.8 5.6
2014-Mar-23 14:00N 52°55' W 146°03'1 1.0 1009.3 5.6
2014-Mar-23 13:00N 52°54' W 146°04'1 1.0 1009.8 5.6
2014-Mar-23 12:00N 52°53' W 146°04'1 1.0 1010.2 5.5
2014-Mar-23 11:00N 52°52' W 146°03'1 1.0 1010.5 5.6
2014-Mar-23 10:00N 52°51' W 146°02'1 0.9 1011.2 5.6
2014-Mar-23 09:00N 52°51' W 146°01'1 0.6 1011.4 5.5
2014-Mar-23 08:00N 52°51' W 146°00'1 0.6 1012.1 5.5
2014-Mar-23 07:00N 52°50' W 145°59'0 0.3 1012.5 5.6
2014-Mar-23 06:00N 52°50' W 145°59'0 0.1 1012.5 5.6
2014-Mar-23 05:00N 52°51' W 145°59'0 0.1 1013.0 5.6
2014-Mar-23 04:00N 52°51' W 145°59'0 0.1 1013.4 5.6
2014-Mar-23 03:00N 52°51' W 145°59'0 0.3 1013.5 5.6
2014-Mar-23 02:00N 52°50' W 145°59'0 0.4 1014.1 5.6
2014-Mar-23 01:00N 52°50' W 145°60'0 0.5 1014.6 5.6
2014-Mar-23 00:00N 52°50' W 145°60'0 0.5 1015.3 5.6
2014-Mar-22 23:00N 52°49' W 145°60'1 0.5 1016.0 5.6
2014-Mar-22 22:00N 52°49' W 145°60'1 0.6 1016.7 5.6
2014-Mar-22 21:00N 52°48' W 145°59'1 0.6 1017.1 5.6
2014-Mar-22 20:00N 52°48' W 145°58'1 0.6 1017.5 5.5
2014-Mar-22 19:00N 52°48' W 145°58'0 0.5 1017.6 5.5
2014-Mar-22 18:00N 52°48' W 145°57'0 0.4 1017.4 5.5
2014-Mar-22 17:00N 52°48' W 145°57'0 0.3 1016.9 5.5
2014-Mar-22 16:00N 52°48' W 145°57'0 0.3 1016.7 5.6
2014-Mar-22 15:00N 52°48' W 145°57'0 0.2 1017.0 5.6
2014-Mar-22 14:00N 52°48' W 145°57'0 0.2 1017.1 5.7
2014-Mar-22 13:00N 52°48' W 145°58'0 0.2 1017.0 5.7
2014-Mar-22 12:00N 52°48' W 145°58'0 0.4 1017.1 5.7
2014-Mar-22 11:00N 52°48' W 145°58'1 0.5 1017.1 5.7
2014-Mar-22 10:00N 52°47' W 145°59'1 0.6 1017.0 5.7
2014-Mar-22 09:00N 52°47' W 145°59'1 0.5 1016.9 5.7
2014-Mar-22 08:00N 52°46' W 145°59'0 0.4 1017.0 5.7
2014-Mar-22 07:00N 52°46' W 145°59'0 0.2 1017.0 5.7
2014-Mar-22 06:00N 52°46' W 145°59'0 0.2 1016.7 5.7
2014-Mar-22 05:00N 52°45' W 145°59'0 0.2 1016.4 5.6
2014-Mar-22 04:00N 52°45' W 145°59'0 0.3 1015.9 5.5
2014-Mar-22 03:00N 52°45' W 145°60'0 0.3 1015.5 5.6
2014-Mar-22 02:00N 52°45' W 146°00'0 0.3 1015.4 5.6
2014-Mar-22 01:00N 52°45' W 146°01'0 0.4 1015.0 5.6
2014-Mar-22 00:00N 52°45' W 146°01'0 0.5 1014.7 5.6
2014-Mar-21 23:00N 52°45' W 146°02'1 0.5 1014.4 5.6
2014-Mar-21 22:00N 52°45' W 146°03'1 0.7 1014.0 5.5
2014-Mar-21 21:00N 52°44' W 146°04'0 0.5 1013.8 5.5
2014-Mar-21 20:00N 52°44' W 146°04'0 0.4 1013.3 5.4
2014-Mar-21 19:00N 52°44' W 146°05'0 0.5 1012.8 5.4
2014-Mar-21 18:00N 52°44' W 146°06'0 0.5 1011.9 5.4
2014-Mar-21 17:00N 52°43' W 146°06'0 0.3 1011.1 5.3
2014-Mar-21 16:00N 52°43' W 146°07'0 0.3 1010.6 5.3
2014-Mar-21 15:00N 52°43' W 146°07'0 0.3 1009.9 5.3
2014-Mar-21 14:00N 52°43' W 146°07'0 0.2 1009.8 5.4
2014-Mar-21 13:00N 52°43' W 146°08'0 0.1 1009.6 5.3
2014-Mar-21 12:00N 52°42' W 146°08'0 0.1 1010.1 5.4
2014-Mar-21 11:00N 52°42' W 146°08'0 0.1 1010.6 5.3
2014-Mar-21 10:00N 52°42' W 146°08'1 0.3 1011.0 5.3
2014-Mar-21 08:00N 52°43' W 146°09'0 0.4 1012.3 5.3
2014-Mar-21 07:00N 52°43' W 146°09'1 0.6 1013.0 5.3
2014-Mar-21 06:00N 52°43' W 146°10'1 0.6 1013.4 5.3
2014-Mar-21 05:00N 52°43' W 146°11'1 0.5 1013.6 5.3
2014-Mar-21 04:00N 52°43' W 146°12'1 0.5 1013.8 5.3
2014-Mar-21 03:00N 52°43' W 146°13'0 0.5 1013.9 5.4
2014-Mar-21 02:00N 52°43' W 146°14'0 0.4 1013.9 5.4
2014-Mar-21 01:00N 52°42' W 146°14'0 0.2 1014.2 5.3
2014-Mar-21 00:00N 52°42' W 146°14'0 0.2 1015.3 5.3
2014-Mar-20 23:00N 52°42' W 146°14'0 0.2 1016.3 5.3
2014-Mar-20 22:00N 52°42' W 146°14'0 0.1 1017.3 5.3
2014-Mar-20 21:00N 52°42' W 146°14'0 0.1 1018.5 5.3
2014-Mar-20 20:00N 52°42' W 146°14'0 0.2 1019.2 5.3
2014-Mar-20 19:00N 52°42' W 146°15'0 0.4 1019.8 5.3
2014-Mar-20 18:00N 52°42' W 146°15'0 0.5 1020.3 5.3
2014-Mar-20 17:00N 52°43' W 146°15'1 0.5 1021.0 5.3
2014-Mar-20 16:00N 52°43' W 146°16'1 0.6 1021.4 5.3
2014-Mar-20 15:00N 52°43' W 146°17'1 0.6 1022.1 5.3
2014-Mar-20 14:00N 52°43' W 146°18'1 0.5 1022.7 5.3
2014-Mar-20 13:00N 52°43' W 146°19'0 0.4 1023.0 5.3
2014-Mar-20 12:00N 52°43' W 146°19'0 0.3 1023.9 5.3
2014-Mar-20 11:00N 52°43' W 146°20'0 0.4 1024.2 5.3
2014-Mar-20 10:00N 52°42' W 146°20'0 0.4 1024.3 5.3
2014-Mar-20 09:00N 52°42' W 146°20'0 0.3 1024.9 5.3
2014-Mar-20 08:00N 52°42' W 146°20'0 0.2 1025.1 5.3
2014-Mar-20 07:00N 52°42' W 146°19'0 0.3 1025.2 5.3
2014-Mar-20 06:00N 52°42' W 146°19'0 0.5 1025.2 5.3
2014-Mar-20 05:00N 52°42' W 146°19'1 0.6 1025.0 5.3
2014-Mar-20 04:00N 52°43' W 146°19'1 0.5 1024.9 5.3
2014-Mar-20 03:00N 52°43' W 146°20'1 0.5 1025.0 5.4
2014-Mar-20 02:00N 52°44' W 146°20'1 0.5 1024.9 5.4
2014-Mar-20 01:00N 52°44' W 146°21'0 0.4 1024.7 5.4
2014-Mar-20 00:00N 52°44' W 146°22'1 0.5 1024.4 5.4
2014-Mar-19 23:00N 52°45' W 146°22'0 0.5 1024.2 5.4
2014-Mar-19 22:00N 52°45' W 146°23'0 0.5 1024.5 5.4
2014-Mar-19 21:00N 52°44' W 146°24'0 0.5 1024.4 5.3
2014-Mar-19 20:00N 52°44' W 146°24'0 0.4 1024.4 5.3
2014-Mar-19 19:00N 52°44' W 146°24'0 0.2 1024.2 5.3
2014-Mar-19 18:00N 52°43' W 146°25'0 0.1 1023.8 5.3
2014-Mar-19 17:00N 52°43' W 146°24'0 0.2 1023.4 5.3
2014-Mar-19 16:00N 52°44' W 146°24'0 0.5 1022.9 5.3
2014-Mar-19 15:00N 52°44' W 146°24'0 0.4 1022.4 5.3
2014-Mar-19 14:00N 52°44' W 146°24'0 0.5 1021.7 5.4
2014-Mar-19 13:00N 52°45' W 146°23'1 0.6 1021.3 5.4
2014-Mar-19 12:00N 52°45' W 146°23'1 0.6 1021.3 5.4
2014-Mar-19 11:00N 52°46' W 146°24'1 0.7 1021.1 5.4
2014-Mar-19 10:00N 52°47' W 146°24'1 0.7 1020.5 5.3
2014-Mar-19 09:00N 52°47' W 146°25'1 0.6 1020.1 5.4
2014-Mar-19 08:00N 52°47' W 146°26'1 0.6 1020.1 5.4
2014-Mar-19 07:00N 52°46' W 146°27'1 0.5 1019.7 5.4
2014-Mar-19 06:00N 52°46' W 146°28'0 0.4 1019.4 5.4
2014-Mar-19 05:00N 52°46' W 146°28'0 0.2 1018.8 5.4
2014-Mar-19 04:00N 52°45' W 146°28'0 0.2 1017.9 5.4
2014-Mar-19 03:00N 52°45' W 146°28'0 0.4 1017.4 5.5
2014-Mar-19 02:00N 52°45' W 146°27'1 0.7 1017.2 5.5
2014-Mar-19 01:00N 52°46' W 146°26'1 0.7 1016.9 5.5
2014-Mar-19 00:00N 52°46' W 146°25'1 0.8 1016.5 5.5
2014-Mar-18 23:00N 52°47' W 146°24'1 0.6 1016.5 5.6
2014-Mar-18 22:00N 52°47' W 146°24'1 0.6 1016.4 5.5
2014-Mar-18 21:00N 52°48' W 146°25'   1016.5 5.4
Track history (hours):
 
Tides and Currents Weather Stations Pressure Air Temp Water Temp Dewpoint Dewpoint Depression Visibility Wind Speed Wind Dir Waves Ship Positions

Drifting buoy 46535

Last reported at 2014-Mar-28 21:00 UTC. Time now 2014-Jul-29 20:57 UTC.
Position N 52°42' W 146°06'.
Warning: this ship's position is months out of date.

Barometer 1005.3 mb
Water temperature 5.9 ° C

Date/timePositionNaut miles runAvg speedWind from/ knotsBaromVisibWave heightAir tempDewpointWater temp
2014-Mar-28 21:00N 52°42' W 146°06'1 1.0 1005.3 5.9
2014-Mar-28 20:00N 52°42' W 146°07'1 1.0 1005.2 5.9
2014-Mar-28 19:00N 52°43' W 146°08'1 0.9 1005.0 5.8
2014-Mar-28 18:00N 52°44' W 146°10'1 0.9 1004.9 5.8
2014-Mar-28 17:00N 52°44' W 146°11'1 0.9 1004.6 5.8
2014-Mar-28 16:00N 52°45' W 146°12'1 0.9 1004.3 5.7
2014-Mar-28 15:00N 52°45' W 146°13'1 0.6 1004.3 5.7
2014-Mar-28 14:00N 52°45' W 146°14'1 0.5 1004.1 5.7
2014-Mar-28 13:00N 52°46' W 146°15'0 0.4 1004.2 5.7
2014-Mar-28 12:00N 52°46' W 146°15'0 0.4 1004.2 5.7
2014-Mar-28 11:00N 52°46' W 146°15'0 0.5 1004.3 5.7
2014-Mar-28 10:00N 52°47' W 146°15'0 0.4 1004.4 5.7
2014-Mar-28 09:00N 52°47' W 146°15'0 0.2 1004.2 5.7
2014-Mar-28 08:00N 52°48' W 146°15'0 0.2 1004.3 5.7
2014-Mar-28 07:00N 52°48' W 146°15'0 0.2 1004.1 5.7
2014-Mar-28 06:00N 52°48' W 146°14'0 0.1 1004.2 5.7
2014-Mar-28 05:00N 52°48' W 146°15'0 0.2 1004.0 5.7
2014-Mar-28 04:00N 52°48' W 146°15'0 0.1 1003.6 5.7
2014-Mar-28 03:00N 52°48' W 146°15'0 0.1 1003.5 5.7
2014-Mar-28 02:00N 52°48' W 146°15'0 0.1 1003.6 5.7
2014-Mar-28 01:00N 52°48' W 146°15'0 0.1 1003.6 5.7
2014-Mar-28 00:00N 52°48' W 146°15'0 0.1 1003.4 5.7
2014-Mar-27 23:00N 52°48' W 146°15'0 0.2 1003.3 5.7
2014-Mar-27 22:00N 52°48' W 146°15'0 0.2 1003.2 5.7
2014-Mar-27 21:00N 52°48' W 146°14'0 0.3 1003.0 5.7
2014-Mar-27 20:00N 52°48' W 146°14'0 0.3 1002.7 5.7
2014-Mar-27 19:00N 52°48' W 146°13'0 0.2 1002.5 5.7
2014-Mar-27 18:00N 52°48' W 146°13'0 0.2 1002.3 5.7
2014-Mar-27 17:00N 52°48' W 146°13'0 0.2 1002.0 5.7
2014-Mar-27 16:00N 52°49' W 146°13'0 0.1 1001.6 5.7
2014-Mar-27 15:00N 52°49' W 146°13'0 0.1 1001.4 5.7
2014-Mar-27 14:00N 52°49' W 146°13'0 0.1 1001.3 5.7
2014-Mar-27 13:00N 52°49' W 146°13'0 0.1 1001.3 5.7
2014-Mar-27 12:00N 52°49' W 146°13'0 0.2 1001.2 5.7
2014-Mar-27 11:00N 52°49' W 146°13'0 0.0 1001.3 5.7
2014-Mar-27 10:00N 52°49' W 146°13'0 0.0 1001.2 5.7
2014-Mar-27 09:00N 52°49' W 146°13'0 0.1 1001.2 5.7
2014-Mar-27 08:00N 52°49' W 146°13'0 0.3 1001.1 5.7
2014-Mar-27 07:00N 52°50' W 146°12'0 0.3 1001.1 5.7
2014-Mar-27 06:00N 52°50' W 146°12'0 0.2 1001.2 5.7
2014-Mar-27 05:00N 52°50' W 146°12'2 0.2 1001.2 5.7
2014-Mar-26 21:00N 52°52' W 146°12'0 0.4 1003.1 5.7
2014-Mar-26 20:00N 52°52' W 146°12'0 0.4 1003.0 5.7
2014-Mar-26 19:00N 52°52' W 146°12'0 0.4 1003.1 5.7
2014-Mar-26 18:00N 52°53' W 146°13'0 0.4 1003.1 5.7
2014-Mar-26 17:00N 52°53' W 146°13'0 0.2 1003.0 5.7
2014-Mar-26 16:00N 52°53' W 146°14'0 0.1 1003.1 5.7
2014-Mar-26 15:00N 52°53' W 146°14'0 0.1 1003.2 5.7
2014-Mar-26 14:00N 52°53' W 146°14'0 0.2 1003.0 5.7
2014-Mar-26 13:00N 52°53' W 146°13'0 0.4 1003.2 5.7
2014-Mar-26 12:00N 52°53' W 146°13'0 0.4 1003.3 5.7
2014-Mar-26 11:00N 52°54' W 146°12'1 0.5 1003.3 5.7
2014-Mar-26 10:00N 52°54' W 146°12'1 0.6 1003.0 5.7
2014-Mar-26 09:00N 52°55' W 146°12'0 0.5 1003.1 5.7
2014-Mar-26 08:00N 52°55' W 146°12'0 0.4 1002.7 5.7
2014-Mar-26 07:00N 52°55' W 146°12'0 0.4 1002.7 5.7
2014-Mar-26 06:00N 52°56' W 146°13'1 0.5 1002.7 5.7
2014-Mar-26 05:00N 52°56' W 146°13'0 0.4 1002.2 5.7
2014-Mar-26 04:00N 52°57' W 146°14'0 0.3 1001.9 5.7
2014-Mar-26 03:00N 52°57' W 146°14'0 0.2 1001.5 5.7
2014-Mar-26 02:00N 52°57' W 146°14'0 0.2 1001.4 5.7
2014-Mar-26 01:00N 52°57' W 146°15'0 0.1 1001.3 5.7
2014-Mar-26 00:00N 52°57' W 146°15'0 0.1 1000.9 5.7
2014-Mar-25 23:00N 52°57' W 146°15'0 0.2 1000.7 5.7
2014-Mar-25 22:00N 52°57' W 146°14'0 0.4 1000.5 5.7
2014-Mar-25 21:00N 52°57' W 146°14'0 0.5 1000.2 5.7
2014-Mar-25 20:00N 52°58' W 146°13'0 0.5 1000.0 5.7
2014-Mar-25 19:00N 52°58' W 146°13'0 0.5 999.5 5.7
2014-Mar-25 18:00N 52°59' W 146°13'0 0.4 999.1 5.7
2014-Mar-25 17:00N 52°59' W 146°13'0 0.3 998.8 5.7
2014-Mar-25 16:00N 52°59' W 146°13'0 0.4 998.5 5.6
2014-Mar-25 15:00N 52°60' W 146°14'0 0.3 998.3 5.6
2014-Mar-25 14:00N 52°60' W 146°14'0 0.2 998.4 5.6
2014-Mar-25 13:00N 52°60' W 146°14'0 0.3 998.4 5.6
2014-Mar-25 12:00N 53°00' W 146°14'0 0.4 998.7 5.6
2014-Mar-25 11:00N 52°60' W 146°15'0 0.2 998.9 5.6
2014-Mar-25 10:00N 52°60' W 146°14'0 0.2 999.2 5.6
2014-Mar-25 09:00N 52°60' W 146°14'0 0.4 999.4 5.6
2014-Mar-25 08:00N 52°60' W 146°14'0 0.5 999.5 5.6
2014-Mar-25 07:00N 52°59' W 146°13'0 0.4 999.8 5.6
2014-Mar-25 06:00N 52°59' W 146°12'0 0.4 999.8 5.6
2014-Mar-25 05:00N 52°60' W 146°11'0 0.3 1000.0 5.6
2014-Mar-25 04:00N 52°60' W 146°11'1 0.3 1000.2 5.6
2014-Mar-25 02:00N 52°60' W 146°10'0 0.2 1001.4 5.7
2014-Mar-25 01:00N 53°00' W 146°10'0 0.1 1002.1 5.7
2014-Mar-25 00:00N 53°00' W 146°10'0 0.2 1002.6 5.7
2014-Mar-24 23:00N 53°00' W 146°10'0 0.2 1003.6 5.7
2014-Mar-24 22:00N 53°00' W 146°11'0 0.2 1004.3 5.7
2014-Mar-24 21:00N 53°00' W 146°11'0 0.2 1004.6 5.7
2014-Mar-24 20:00N 52°60' W 146°11'0 0.2 1004.7 5.6
2014-Mar-24 19:00N 52°60' W 146°11'0 0.3 1004.3 5.6
2014-Mar-24 18:00N 52°60' W 146°10'0 0.3 1004.3 5.6
2014-Mar-24 17:00N 52°59' W 146°10'0 0.3 1004.1 5.6
2014-Mar-24 16:00N 52°59' W 146°09'0 0.4 1004.4 5.6
2014-Mar-24 15:00N 52°59' W 146°09'0 0.4 1004.7 5.6
2014-Mar-24 14:00N 52°59' W 146°08'0 0.4 1004.9 5.6
2014-Mar-24 13:00N 52°59' W 146°08'0 0.3 1005.4 5.6
2014-Mar-24 12:00N 52°59' W 146°07'0 0.1 1005.9 5.6
2014-Mar-24 11:00N 52°59' W 146°07'0 0.2 1006.4 5.6
2014-Mar-24 10:00N 52°59' W 146°07'0 0.3 1006.4 5.6
2014-Mar-24 09:00N 52°59' W 146°08'0 0.4 1006.2 5.6
2014-Mar-24 08:00N 52°59' W 146°08'0 0.2 1005.9 5.6
2014-Mar-24 07:00N 52°59' W 146°08'0 0.1 1005.5 5.6
2014-Mar-24 06:00N 52°59' W 146°08'0 0.1 1004.3 5.6
2014-Mar-24 05:00N 52°59' W 146°08'0 0.1 1002.7 5.6
2014-Mar-24 04:00N 52°59' W 146°09'0 0.2 1002.4 5.6
2014-Mar-24 03:00N 52°59' W 146°08'0 0.4 1003.1 5.6
2014-Mar-24 02:00N 52°59' W 146°08'1 0.6 1003.6 5.6
2014-Mar-24 01:00N 52°58' W 146°07'1 0.7 1004.4 5.6
2014-Mar-24 00:00N 52°57' W 146°07'1 0.8 1005.0 5.6
2014-Mar-23 23:00N 52°57' W 146°06'1 0.7 1005.6 5.7
2014-Mar-23 22:00N 52°56' W 146°05'1 0.6 1006.4 5.7
2014-Mar-23 21:00N 52°56' W 146°04'0 0.1 1006.7 5.7
2014-Mar-23 20:00N 52°56' W 146°04'1 0.6 1007.2 5.7
2014-Mar-23 19:00N 52°56' W 146°03'0 0.2 1007.5 5.6
2014-Mar-23 18:00N 52°56' W 146°03'0 0.1 1008.0 5.6
2014-Mar-23 17:00N 52°56' W 146°03'0 0.2 1008.3 5.6
2014-Mar-23 16:00N 52°56' W 146°03'0 0.4 1008.4 5.6
2014-Mar-23 15:00N 52°55' W 146°03'1 0.5 1008.8 5.6
2014-Mar-23 14:00N 52°55' W 146°03'1 1.0 1009.3 5.6
2014-Mar-23 13:00N 52°54' W 146°04'1 1.0 1009.8 5.6
2014-Mar-23 12:00N 52°53' W 146°04'1 1.0 1010.2 5.5
2014-Mar-23 11:00N 52°52' W 146°03'1 1.0 1010.5 5.6
2014-Mar-23 10:00N 52°51' W 146°02'1 0.9 1011.2 5.6
2014-Mar-23 09:00N 52°51' W 146°01'1 0.6 1011.4 5.5
2014-Mar-23 08:00N 52°51' W 146°00'1 0.6 1012.1 5.5
2014-Mar-23 07:00N 52°50' W 145°59'0 0.3 1012.5 5.6
2014-Mar-23 06:00N 52°50' W 145°59'0 0.1 1012.5 5.6
2014-Mar-23 05:00N 52°51' W 145°59'0 0.1 1013.0 5.6
2014-Mar-23 04:00N 52°51' W 145°59'0 0.1 1013.4 5.6
2014-Mar-23 03:00N 52°51' W 145°59'0 0.3 1013.5 5.6
2014-Mar-23 02:00N 52°50' W 145°59'0 0.4 1014.1 5.6
2014-Mar-23 01:00N 52°50' W 145°60'0 0.5 1014.6 5.6
2014-Mar-23 00:00N 52°50' W 145°60'0 0.5 1015.3 5.6
2014-Mar-22 23:00N 52°49' W 145°60'1 0.5 1016.0 5.6
2014-Mar-22 22:00N 52°49' W 145°60'1 0.6 1016.7 5.6
2014-Mar-22 21:00N 52°48' W 145°59'1 0.6 1017.1 5.6
2014-Mar-22 20:00N 52°48' W 145°58'1 0.6 1017.5 5.5
2014-Mar-22 19:00N 52°48' W 145°58'0 0.5 1017.6 5.5
2014-Mar-22 18:00N 52°48' W 145°57'0 0.4 1017.4 5.5
2014-Mar-22 17:00N 52°48' W 145°57'0 0.3 1016.9 5.5
2014-Mar-22 16:00N 52°48' W 145°57'0 0.3 1016.7 5.6
2014-Mar-22 15:00N 52°48' W 145°57'0 0.2 1017.0 5.6
2014-Mar-22 14:00N 52°48' W 145°57'0 0.2 1017.1 5.7
2014-Mar-22 13:00N 52°48' W 145°58'0 0.2 1017.0 5.7
2014-Mar-22 12:00N 52°48' W 145°58'0 0.4 1017.1 5.7
2014-Mar-22 11:00N 52°48' W 145°58'1 0.5 1017.1 5.7
2014-Mar-22 10:00N 52°47' W 145°59'1 0.6 1017.0 5.7
2014-Mar-22 09:00N 52°47' W 145°59'1 0.5 1016.9 5.7
2014-Mar-22 08:00N 52°46' W 145°59'0 0.4 1017.0 5.7
2014-Mar-22 07:00N 52°46' W 145°59'0 0.2 1017.0 5.7
2014-Mar-22 06:00N 52°46' W 145°59'0 0.2 1016.7 5.7
2014-Mar-22 05:00N 52°45' W 145°59'0 0.2 1016.4 5.6
2014-Mar-22 04:00N 52°45' W 145°59'0 0.3 1015.9 5.5
2014-Mar-22 03:00N 52°45' W 145°60'0 0.3 1015.5 5.6
2014-Mar-22 02:00N 52°45' W 146°00'0 0.3 1015.4 5.6
2014-Mar-22 01:00N 52°45' W 146°01'0 0.4 1015.0 5.6
2014-Mar-22 00:00N 52°45' W 146°01'0 0.5 1014.7 5.6
2014-Mar-21 23:00N 52°45' W 146°02'1 0.5 1014.4 5.6
2014-Mar-21 22:00N 52°45' W 146°03'1 0.7 1014.0 5.5
2014-Mar-21 21:00N 52°44' W 146°04'0 0.5 1013.8 5.5
2014-Mar-21 20:00N 52°44' W 146°04'0 0.4 1013.3 5.4
2014-Mar-21 19:00N 52°44' W 146°05'0 0.5 1012.8 5.4
2014-Mar-21 18:00N 52°44' W 146°06'0 0.5 1011.9 5.4
2014-Mar-21 17:00N 52°43' W 146°06'0 0.3 1011.1 5.3
2014-Mar-21 16:00N 52°43' W 146°07'0 0.3 1010.6 5.3
2014-Mar-21 15:00N 52°43' W 146°07'0 0.3 1009.9 5.3
2014-Mar-21 14:00N 52°43' W 146°07'0 0.2 1009.8 5.4
2014-Mar-21 13:00N 52°43' W 146°08'0 0.1 1009.6 5.3
2014-Mar-21 12:00N 52°42' W 146°08'0 0.1 1010.1 5.4
2014-Mar-21 11:00N 52°42' W 146°08'0 0.1 1010.6 5.3
2014-Mar-21 10:00N 52°42' W 146°08'1 0.3 1011.0 5.3
2014-Mar-21 08:00N 52°43' W 146°09'0 0.4 1012.3 5.3
2014-Mar-21 07:00N 52°43' W 146°09'1 0.6 1013.0 5.3
2014-Mar-21 06:00N 52°43' W 146°10'1 0.6 1013.4 5.3
2014-Mar-21 05:00N 52°43' W 146°11'1 0.5 1013.6 5.3
2014-Mar-21 04:00N 52°43' W 146°12'1 0.5 1013.8 5.3
2014-Mar-21 03:00N 52°43' W 146°13'0 0.5 1013.9 5.4
2014-Mar-21 02:00N 52°43' W 146°14'0 0.4 1013.9 5.4
2014-Mar-21 01:00N 52°42' W 146°14'0 0.2 1014.2 5.3
2014-Mar-21 00:00N 52°42' W 146°14'0 0.2 1015.3 5.3
2014-Mar-20 23:00N 52°42' W 146°14'0 0.2 1016.3 5.3
2014-Mar-20 22:00N 52°42' W 146°14'0 0.1 1017.3 5.3
2014-Mar-20 21:00N 52°42' W 146°14'0 0.1 1018.5 5.3
2014-Mar-20 20:00N 52°42' W 146°14'0 0.2 1019.2 5.3
2014-Mar-20 19:00N 52°42' W 146°15'0 0.4 1019.8 5.3
2014-Mar-20 18:00N 52°42' W 146°15'0 0.5 1020.3 5.3
2014-Mar-20 17:00N 52°43' W 146°15'1 0.5 1021.0 5.3
2014-Mar-20 16:00N 52°43' W 146°16'1 0.6 1021.4 5.3
2014-Mar-20 15:00N 52°43' W 146°17'1 0.6 1022.1 5.3
2014-Mar-20 14:00N 52°43' W 146°18'1 0.5 1022.7 5.3
2014-Mar-20 13:00N 52°43' W 146°19'0 0.4 1023.0 5.3
2014-Mar-20 12:00N 52°43' W 146°19'0 0.3 1023.9 5.3
2014-Mar-20 11:00N 52°43' W 146°20'0 0.4 1024.2 5.3
2014-Mar-20 10:00N 52°42' W 146°20'0 0.4 1024.3 5.3
2014-Mar-20 09:00N 52°42' W 146°20'0 0.3 1024.9 5.3
2014-Mar-20 08:00N 52°42' W 146°20'0 0.2 1025.1 5.3
2014-Mar-20 07:00N 52°42' W 146°19'0 0.3 1025.2 5.3
2014-Mar-20 06:00N 52°42' W 146°19'0 0.5 1025.2 5.3
2014-Mar-20 05:00N 52°42' W 146°19'1 0.6 1025.0 5.3
2014-Mar-20 04:00N 52°43' W 146°19'1 0.5 1024.9 5.3
2014-Mar-20 03:00N 52°43' W 146°20'1 0.5 1025.0 5.4
2014-Mar-20 02:00N 52°44' W 146°20'1 0.5 1024.9 5.4
2014-Mar-20 01:00N 52°44' W 146°21'0 0.4 1024.7 5.4
2014-Mar-20 00:00N 52°44' W 146°22'1 0.5 1024.4 5.4
2014-Mar-19 23:00N 52°45' W 146°22'0 0.5 1024.2 5.4
2014-Mar-19 22:00N 52°45' W 146°23'0 0.5 1024.5 5.4
2014-Mar-19 21:00N 52°44' W 146°24'0 0.5 1024.4 5.3
2014-Mar-19 20:00N 52°44' W 146°24'0 0.4 1024.4 5.3
2014-Mar-19 19:00N 52°44' W 146°24'0 0.2 1024.2 5.3
2014-Mar-19 18:00N 52°43' W 146°25'0 0.1 1023.8 5.3
2014-Mar-19 17:00N 52°43' W 146°24'0 0.2 1023.4 5.3
2014-Mar-19 16:00N 52°44' W 146°24'0 0.5 1022.9 5.3
2014-Mar-19 15:00N 52°44' W 146°24'0 0.4 1022.4 5.3
2014-Mar-19 14:00N 52°44' W 146°24'0 0.5 1021.7 5.4
2014-Mar-19 13:00N 52°45' W 146°23'1 0.6 1021.3 5.4
2014-Mar-19 12:00N 52°45' W 146°23'1 0.6 1021.3 5.4
2014-Mar-19 11:00N 52°46' W 146°24'1 0.7 1021.1 5.4
2014-Mar-19 10:00N 52°47' W 146°24'1 0.7 1020.5 5.3
2014-Mar-19 09:00N 52°47' W 146°25'1 0.6 1020.1 5.4
2014-Mar-19 08:00N 52°47' W 146°26'1 0.6 1020.1 5.4
2014-Mar-19 07:00N 52°46' W 146°27'1 0.5 1019.7 5.4
2014-Mar-19 06:00N 52°46' W 146°28'0 0.4 1019.4 5.4
2014-Mar-19 05:00N 52°46' W 146°28'0 0.2 1018.8 5.4
2014-Mar-19 04:00N 52°45' W 146°28'0 0.2 1017.9 5.4
2014-Mar-19 03:00N 52°45' W 146°28'0 0.4 1017.4 5.5
2014-Mar-19 02:00N 52°45' W 146°27'1 0.7 1017.2 5.5
2014-Mar-19 01:00N 52°46' W 146°26'1 0.7 1016.9 5.5
2014-Mar-19 00:00N 52°46' W 146°25'1 0.8 1016.5 5.5
2014-Mar-18 23:00N 52°47' W 146°24'1 0.6 1016.5 5.6
2014-Mar-18 22:00N 52°47' W 146°24'1 0.6 1016.4 5.5
2014-Mar-18 21:00N 52°48' W 146°25'   1016.5 5.4

Dump ship's entire track history